Hoard, Wisconsin
Current Conditions -  °F | °C
As of 11:15 AM on Thursday 27 Nov 2014 (Local Time) from KMDZ Reporting Station
Clear Clear  
Wind Chill: -2°   Ceiling: Unl
Heat Index:   Visibility: 10mi
Dew Point:   Wind: 6mph
Humidity: 70%   Direction: 320°NW
Pressure: 30.35"   Gusts: NA
Location:  44.9591°N, 90.4659°W
Report Text: KMDZ 271715Z AUTO 32005KT 10SM CLR M13/M18 A3035 RMK AO2 T11351180
Loading
Personal Weather Stations






























Interactive Weather Map New forecast layout! Learn more

10-Day Weather Forecast

Advertisements
Track Severe Weather on mobile